Time;durP1;ratioP1;P1;durP2;ratioP2;P2;SDS_P1;SDS_P2;PMS_P1;PMS_P2;Temp;Humidity;BMP_temperature;BMP_pressure;BME280_temperature;BME280_humidity;BME280_pressure;Samples;Min_cycle;Max_cycle;Signal;HPM_P1;HPM_P2
2022/10/04 00:00:08;;;;;;;11.20;2.37;;;12.90;99.90;;;;;;5044643;28;20401;-71
2022/10/04 00:02:38;;;;;;;4.80;2.50;;;12.90;99.90;;;;;;5040545;28;20488;-70
2022/10/04 00:05:14;;;;;;;8.40;3.40;;;12.90;99.90;;;;;;5024304;28;20438;-71
2022/10/04 00:07:47;;;;;;;4.10;2.07;;;12.90;24.60;;;;;;5027004;28;20759;-70
2022/10/04 00:10:19;;;;;;;12.90;2.87;;;12.80;1.00;;;;;;5031689;28;20383;-71
2022/10/04 00:12:50;;;;;;;8.67;2.20;;;12.80;1.00;;;;;;5039510;28;20444;-70
2022/10/04 00:15:22;;;;;;;12.13;3.33;;;12.80;1.00;;;;;;5048134;28;20431;-69
2022/10/04 00:18:21;;;;;;;11.30;2.40;;;12.80;1.00;;;;;;5038236;28;20949;-71
2022/10/04 00:21:01;;;;;;;3.87;2.07;;;12.80;1.00;;;;;;5032622;28;20424;-70
2022/10/04 00:23:42;;;;;;;5.30;2.60;;;12.80;1.00;;;;;;5025753;28;20428;-70
2022/10/04 00:26:33;;;;;;;4.07;2.20;;;12.80;1.00;;;;;;5011377;28;20456;-70
2022/10/04 00:29:30;;;;;;;6.40;2.20;;;12.80;1.00;;;;;;5031423;28;20985;-71
2022/10/04 00:32:29;;;;;;;4.83;2.13;;;12.80;1.00;;;;;;5031334;28;20395;-70
2022/10/04 00:34:59;;;;;;;11.77;2.57;;;12.80;1.00;;;;;;5029888;28;20467;-71
2022/10/04 00:37:56;;;;;;;9.53;1.90;;;12.80;1.00;;;;;;5030949;28;20817;-70
2022/10/04 00:40:30;;;;;;;15.83;2.60;;;12.80;1.00;;;;;;5043318;28;20677;-70
2022/10/04 00:43:02;;;;;;;4.10;1.80;;;12.80;1.00;;;;;;5044528;28;20520;-69
2022/10/04 00:45:36;;;;;;;20.33;2.90;;;12.80;1.00;;;;;;5037072;28;20507;-70
2022/10/04 00:48:24;;;;;;;8.77;2.50;;;12.70;1.00;;;;;;5050547;28;20385;-70
2022/10/04 00:51:05;;;;;;;11.23;2.97;;;12.80;1.00;;;;;;5050793;28;20416;-70
2022/10/04 00:53:48;;;;;;;6.50;2.30;;;12.80;1.00;;;;;;5050600;28;20928;-70
2022/10/04 00:56:23;;;;;;;5.90;1.80;;;12.80;1.00;;;;;;5043281;28;20529;-70
2022/10/04 00:59:24;;;;;;;18.57;3.80;;;12.80;1.00;;;;;;5030489;28;20412;-69
2022/10/04 01:01:57;;;;;;;5.33;3.03;;;12.80;1.00;;;;;;5013710;28;20474;-70
2022/10/04 01:04:36;;;;;;;14.10;2.40;;;12.80;1.00;;;;;;5030320;28;20867;-71
2022/10/04 01:07:07;;;;;;;6.37;2.77;;;12.80;1.00;;;;;;5010554;28;20387;-70
2022/10/04 01:09:44;;;;;;;20.30;3.40;;;12.80;1.00;;;;;;5040203;28;20463;-70
2022/10/04 01:12:20;;;;;;;7.73;2.00;;;12.80;1.00;;;;;;5045957;28;20405;-70
2022/10/04 01:14:55;;;;;;;3.50;2.07;;;12.80;1.00;;;;;;5028886;28;20504;-70
2022/10/04 01:17:23;;;;;;;10.67;2.10;;;12.70;1.00;;;;;;5029868;28;20842;-70
2022/10/04 01:19:53;;;;;;;13.47;2.63;;;12.70;1.00;;;;;;5012066;28;20453;-70
2022/10/04 01:22:36;;;;;;;10.73;2.73;;;12.60;1.00;;;;;;5038724;28;20515;-70
2022/10/04 01:25:05;;;;;;;8.43;1.90;;;12.60;1.00;;;;;;5043097;28;20960;-70
2022/10/04 01:27:37;;;;;;;11.47;3.00;;;12.50;1.00;;;;;;5036609;28;20958;-70
2022/10/04 01:30:09;;;;;;;13.33;2.47;;;12.60;1.00;;;;;;5046427;28;20437;-70
2022/10/04 01:32:39;;;;;;;6.10;2.03;;;12.60;1.00;;;;;;5048739;28;20414;-71
2022/10/04 01:35:09;;;;;;;8.97;2.23;;;12.50;1.00;;;;;;5048599;28;20773;-71
2022/10/04 01:37:39;;;;;;;4.80;1.60;;;12.60;1.00;;;;;;5048814;28;20807;-70
2022/10/04 01:40:10;;;;;;;8.20;2.73;;;12.60;1.00;;;;;;5029462;28;20422;-71
2022/10/04 01:42:45;;;;;;;12.00;2.93;;;12.70;99.90;;;;;;5037143;28;20453;-70
2022/10/04 01:45:21;;;;;;;10.20;2.40;;;12.60;99.90;;;;;;5048013;28;20429;-70
2022/10/04 01:47:56;;;;;;;5.63;2.20;;;12.60;99.90;;;;;;5048878;28;20469;-70
2022/10/04 01:50:29;;;;;;;9.07;2.40;;;12.60;99.90;;;;;;5047733;28;20455;-71
2022/10/04 01:53:08;;;;;;;7.10;2.60;;;12.60;1.00;;;;;;5049013;28;20441;-70
2022/10/04 01:55:40;;;;;;;5.20;2.10;;;12.60;1.00;;;;;;5038428;28;20456;-71
2022/10/04 01:58:13;;;;;;;10.03;3.27;;;12.60;99.90;;;;;;5042084;28;20433;-70
2022/10/04 02:00:50;;;;;;;7.03;3.27;;;12.60;99.90;;;;;;5041965;28;20499;-69
2022/10/04 02:03:23;;;;;;;11.00;2.20;;;12.60;99.90;;;;;;5028997;28;20768;-71
2022/10/04 02:05:57;;;;;;;8.50;2.27;;;12.60;99.90;;;;;;5031356;28;20452;-71
2022/10/04 02:08:30;;;;;;;7.80;2.73;;;12.60;99.90;;;;;;5048828;28;20417;-70
2022/10/04 02:11:00;;;;;;;8.10;2.20;;;12.60;99.90;;;;;;5040574;28;20460;-70
2022/10/04 02:13:35;;;;;;;6.03;2.10;;;12.60;99.90;;;;;;5033790;28;20450;-70
2022/10/04 02:16:08;;;;;;;14.60;2.60;;;12.50;99.90;;;;;;5030979;28;20418;-70
2022/10/04 02:18:39;;;;;;;8.47;3.00;;;12.50;99.90;;;;;;5069163;22;20474;-68
2022/10/04 02:21:08;;;;;;;10.93;2.93;;;12.40;99.90;;;;;;5018516;28;20844;-70
2022/10/04 02:23:39;;;;;;;7.97;2.30;;;12.40;99.90;;;;;;5012510;28;20427;-70
2022/10/04 02:26:09;;;;;;;5.80;2.03;;;12.40;99.90;;;;;;5018184;28;20403;-70
2022/10/04 02:28:38;;;;;;;5.53;2.07;;;12.40;99.90;;;;;;5012440;28;20483;-70
2022/10/04 02:33:58;;;;;;;6.53;3.87;;;12.20;99.90;;;;;;5007749;28;20419;-69
2022/10/04 02:36:29;;;;;;;7.60;2.63;;;12.10;99.90;;;;;;5012508;28;20911;-71
2022/10/04 02:39:03;;;;;;;13.10;2.80;;;12.10;99.90;;;;;;5012608;28;20445;-68
2022/10/04 02:41:35;;;;;;;4.67;1.80;;;12.10;99.90;;;;;;5015693;28;20420;-69
2022/10/04 02:44:12;;;;;;;7.63;1.90;;;12.10;99.90;;;;;;5012083;28;20426;-70
2022/10/04 02:46:50;;;;;;;8.83;2.87;;;12.10;99.90;;;;;;5012039;28;20455;-68
2022/10/04 02:49:26;;;;;;;6.03;2.27;;;12.10;99.90;;;;;;5012190;28;20461;-69
2022/10/04 02:52:02;;;;;;;6.03;1.97;;;12.10;99.90;;;;;;4999516;28;20460;-71
2022/10/04 02:54:38;;;;;;;16.27;2.33;;;12.10;99.90;;;;;;5016807;28;20428;-69
2022/10/04 02:57:15;;;;;;;8.30;2.73;;;12.00;99.90;;;;;;5014099;28;20453;-68
2022/10/04 02:59:43;;;;;;;6.43;2.13;;;12.00;99.90;;;;;;5008549;28;20398;-69
2022/10/04 03:02:22;;;;;;;14.50;3.60;;;11.90;99.90;;;;;;5017022;28;20988;-69
2022/10/04 03:05:06;;;;;;;3.70;1.83;;;11.80;99.90;;;;;;5026175;28;20794;-70
2022/10/04 03:07:36;;;;;;;6.40;2.50;;;11.70;99.90;;;;;;5015142;28;20427;-69
2022/10/04 03:10:11;;;;;;;17.40;3.97;;;11.50;99.90;;;;;;5024556;28;20463;-69
2022/10/04 03:12:40;;;;;;;5.80;2.77;;;11.50;1.00;;;;;;5020554;28;20462;-69
2022/10/04 03:15:11;;;;;;;9.20;3.67;;;11.40;1.00;;;;;;5017286;28;20435;-68
2022/10/04 03:17:41;;;;;;;6.83;4.00;;;11.30;1.00;;;;;;5015145;28;20426;-69
2022/10/04 03:20:14;;;;;;;8.60;2.37;;;11.30;1.00;;;;;;5015196;28;21060;-69
2022/10/04 03:22:45;;;;;;;11.03;3.40;;;11.30;11.30;;;;;;5015080;28;20512;-69
2022/10/04 03:25:20;;;;;;;6.90;2.90;;;11.20;1.00;;;;;;5005998;28;20434;-69
2022/10/04 03:27:50;;;;;;;11.90;2.43;;;11.20;1.00;;;;;;5005948;28;20416;-69
2022/10/04 03:30:19;;;;;;;11.50;3.23;;;11.10;1.00;;;;;;5028802;28;20467;-69
2022/10/04 03:32:50;;;;;;;6.50;3.00;;;11.00;99.90;;;;;;5022181;28;20762;-68
2022/10/04 03:35:28;;;;;;;8.13;3.13;;;10.90;99.90;;;;;;5011336;28;20930;-69
2022/10/04 03:37:58;;;;;;;11.87;3.20;;;10.90;99.90;;;;;;5026791;28;20447;-69
2022/10/04 03:40:31;;;;;;;16.10;3.23;;;10.90;99.90;;;;;;5014475;28;20919;-69
2022/10/04 03:43:02;;;;;;;11.60;3.40;;;10.90;99.90;;;;;;5014926;28;20416;-69
2022/10/04 03:45:33;;;;;;;20.27;5.07;;;10.90;99.90;;;;;;5014972;28;20456;-69
2022/10/04 03:48:08;;;;;;;18.70;3.70;;;10.80;99.90;;;;;;5014884;28;20419;-69
2022/10/04 03:50:43;;;;;;;13.57;3.47;;;10.70;99.90;;;;;;5014834;28;20456;-69
2022/10/04 03:53:19;;;;;;;16.47;4.30;;;10.70;99.90;;;;;;5015089;28;20923;-69
2022/10/04 03:55:49;;;;;;;11.53;3.23;;;10.70;99.90;;;;;;5014442;28;20764;-68
2022/10/04 03:58:19;;;;;;;5.70;2.20;;;10.80;99.90;;;;;;5014424;28;20527;-69
2022/10/04 04:01:12;;;;;;;3.13;2.00;;;10.80;99.90;;;;;;5022559;28;20406;-70
2022/10/04 04:03:54;;;;;;;6.30;3.50;;;10.90;99.90;;;;;;5020745;28;20954;-68
2022/10/04 04:06:24;;;;;;;12.37;3.30;;;11.00;99.90;;;;;;5019200;28;20459;-69
2022/10/04 04:08:55;;;;;;;6.50;3.13;;;11.10;99.90;;;;;;5014160;28;20764;-70
2022/10/04 04:11:27;;;;;;;11.07;3.17;;;11.10;99.90;;;;;;5018723;28;20903;-69
2022/10/04 04:14:05;;;;;;;15.43;3.13;;;11.10;99.90;;;;;;5014473;28;20429;-69
2022/10/04 04:16:34;;;;;;;12.40;2.80;;;11.00;99.90;;;;;;5008207;28;20969;-68
2022/10/04 04:19:11;;;;;;;12.33;3.53;;;10.90;99.90;;;;;;5005913;28;20449;-69
2022/10/04 04:21:41;;;;;;;4.53;2.90;;;10.90;99.90;;;;;;5033367;28;20429;-69
2022/10/04 04:24:23;;;;;;;10.40;2.80;;;10.80;99.90;;;;;;5022925;28;20436;-69
2022/10/04 04:26:58;;;;;;;6.17;3.20;;;10.80;99.90;;;;;;5016279;28;20437;-70
2022/10/04 04:29:33;;;;;;;4.43;2.97;;;10.70;99.90;;;;;;5020506;28;20407;-70
2022/10/04 04:32:08;;;;;;;5.53;3.43;;;10.60;99.90;;;;;;5021237;28;20535;-70
2022/10/04 04:34:51;;;;;;;7.60;2.57;;;10.60;99.90;;;;;;5014040;28;20466;-69
2022/10/04 04:37:20;;;;;;;7.87;2.60;;;10.50;99.90;;;;;;5013946;28;20453;-69
2022/10/04 04:39:53;;;;;;;8.77;3.50;;;10.50;99.90;;;;;;5017685;28;20439;-70
2022/10/04 04:42:31;;;;;;;18.03;3.00;;;10.30;99.90;;;;;;5013738;28;20413;-69
2022/10/04 04:45:04;;;;;;;11.33;2.90;;;10.40;99.90;;;;;;5007270;28;20875;-69
2022/10/04 04:47:37;;;;;;;11.33;3.37;;;10.30;99.90;;;;;;5007594;28;20438;-70
2022/10/04 04:50:08;;;;;;;13.80;3.20;;;10.30;99.90;;;;;;5012256;28;20452;-69
2022/10/04 04:52:38;;;;;;;10.03;3.97;;;10.30;99.90;;;;;;5006982;28;20461;-69
2022/10/04 04:55:15;;;;;;;10.83;3.53;;;10.30;99.90;;;;;;5016486;28;20530;-69
2022/10/04 04:57:46;;;;;;;14.00;3.50;;;10.30;99.90;;;;;;5019930;28;20421;-69
2022/10/04 05:00:19;;;;;;;8.70;2.67;;;10.40;99.90;;;;;;5023840;28;20498;-70
2022/10/04 05:02:53;;;;;;;6.40;3.40;;;10.40;99.90;;;;;;5013408;28;20425;-70
2022/10/04 05:05:29;;;;;;;8.87;4.73;;;10.40;99.90;;;;;;5014832;28;20465;-69
2022/10/04 05:08:14;;;;;;;4.63;3.20;;;10.40;99.90;;;;;;5024842;28;20451;-70
2022/10/04 05:10:47;;;;;;;5.73;3.57;;;10.40;99.90;;;;;;5013117;28;20936;-69
2022/10/04 05:13:18;;;;;;;8.30;4.97;;;10.40;99.90;;;;;;5015888;28;20975;-69
2022/10/04 05:15:50;;;;;;;13.73;4.70;;;10.50;99.90;;;;;;5024518;28;20495;-69
2022/10/04 05:18:30;;;;;;;8.07;2.80;;;10.60;99.90;;;;;;5012908;28;20423;-69
2022/10/04 05:21:07;;;;;;;11.30;3.20;;;10.60;99.90;;;;;;5013290;28;20421;-70
2022/10/04 05:23:36;;;;;;;20.73;3.73;;;10.70;99.90;;;;;;5032798;28;20387;-70
2022/10/04 05:26:10;;;;;;;16.43;6.87;;;10.70;99.90;;;;;;5014638;28;20418;-70
2022/10/04 05:28:40;;;;;;;11.10;4.00;;;10.80;99.90;;;;;;5023127;28;20429;-69
2022/10/04 05:31:31;;;;;;;8.77;4.70;;;10.80;99.90;;;;;;5009204;28;20465;-68
2022/10/04 05:34:00;;;;;;;8.03;5.00;;;10.90;99.90;;;;;;5005421;28;20521;-68
2022/10/04 05:37:19;;;;;;;9.37;4.53;;;11.10;99.90;;;;;;5017582;28;20822;-69
2022/10/04 05:39:58;;;;;;;9.63;2.80;;;11.20;99.90;;;;;;4986644;28;20452;-69
2022/10/04 05:42:37;;;;;;;18.67;3.80;;;11.30;99.90;;;;;;5018365;28;20395;-70
2022/10/04 05:45:17;;;;;;;12.13;4.60;;;11.50;99.90;;;;;;5006550;28;20503;-71
2022/10/04 05:47:47;;;;;;;5.90;3.10;;;11.60;99.90;;;;;;5013044;28;20456;-69
2022/10/04 05:50:19;;;;;;;15.60;2.80;;;11.70;99.90;;;;;;5012926;28;20417;-68
2022/10/04 05:52:51;;;;;;;7.93;3.13;;;11.80;99.90;;;;;;4992890;28;20537;-69
2022/10/04 05:55:28;;;;;;;11.33;3.50;;;11.90;99.90;;;;;;5013189;28;20461;-69
2022/10/04 05:58:17;;;;;;;14.70;3.10;;;12.00;99.90;;;;;;5012358;28;20448;-69
2022/10/04 06:01:05;;;;;;;12.23;2.60;;;12.10;99.90;;;;;;5019664;28;20490;-68
2022/10/04 06:04:20;;;;;;;14.43;3.33;;;12.10;99.90;;;;;;5012819;28;20427;-70
2022/10/04 06:06:54;;;;;;;8.87;3.03;;;12.30;99.90;;;;;;5006047;28;20477;-69
2022/10/04 06:09:53;;;;;;;8.47;2.47;;;12.40;99.90;;;;;;5005870;28;20501;-70
2022/10/04 06:12:32;;;;;;;16.17;5.30;;;12.50;99.90;;;;;;5009214;28;21071;-68
2022/10/04 06:15:21;;;;;;;8.77;2.60;;;12.60;99.90;;;;;;5015738;28;20429;-69
2022/10/04 06:18:04;;;;;;;13.57;4.20;;;12.70;99.90;;;;;;5008487;28;20470;-68
2022/10/04 06:21:00;;;;;;;9.70;3.50;;;12.70;99.90;;;;;;5011291;28;20423;-68
2022/10/04 06:23:32;;;;;;;10.07;3.10;;;12.80;99.90;;;;;;5007473;28;20415;-68
2022/10/04 06:26:07;;;;;;;6.93;2.60;;;12.80;99.90;;;;;;5012979;28;20421;-68
2022/10/04 06:28:40;;;;;;;11.57;2.33;;;12.90;99.90;;;;;;5016199;28;20906;-69
2022/10/04 06:31:45;;;;;;;8.53;2.43;;;13.00;99.90;;;;;;5012359;28;20451;-69
2022/10/04 06:34:45;;;;;;;14.57;2.87;;;13.10;99.90;;;;;;5014491;28;20436;-69
2022/10/04 06:37:30;;;;;;;11.43;2.33;;;13.20;99.90;;;;;;5029243;28;20976;-69
2022/10/04 06:40:21;;;;;;;8.40;2.17;;;13.10;34.60;;;;;;5015673;28;20428;-70
2022/10/04 06:43:22;;;;;;;10.10;2.60;;;13.20;99.20;;;;;;5015929;28;20392;-70
2022/10/04 06:46:15;;;;;;;7.20;2.10;;;13.20;76.30;;;;;;5010972;28;20443;-69
2022/10/04 06:49:17;;;;;;;6.80;2.00;;;13.20;73.60;;;;;;5010221;28;20922;-70
2022/10/04 06:52:14;;;;;;;19.20;2.80;;;13.00;99.90;;;;;;5016568;28;20445;-69
2022/10/04 06:55:08;;;;;;;9.00;2.97;;;13.00;99.90;;;;;;5015381;28;20455;-69
2022/10/04 06:58:01;;;;;;;7.20;1.83;;;12.90;99.90;;;;;;5012038;28;20450;-69
2022/10/04 07:00:35;;;;;;;7.43;2.50;;;13.00;99.90;;;;;;5009630;28;20889;-69
2022/10/04 07:03:11;;;;;;;4.07;1.97;;;12.90;99.90;;;;;;5013961;28;20502;-68
2022/10/04 07:05:44;;;;;;;5.93;2.17;;;12.80;99.90;;;;;;5018467;28;20405;-70
2022/10/04 07:08:29;;;;;;;3.70;2.40;;;12.70;99.90;;;;;;5015795;28;20487;-69
2022/10/04 07:11:03;;;;;;;5.83;3.27;;;12.70;99.90;;;;;;5017680;28;20403;-70
2022/10/04 07:13:45;;;;;;;11.90;3.57;;;12.80;99.90;;;;;;5020589;28;20463;-71
2022/10/04 07:16:34;;;;;;;6.23;2.00;;;12.80;99.90;;;;;;5031432;28;20520;-69
2022/10/04 07:19:23;;;;;;;7.77;2.70;;;12.90;99.90;;;;;;5034336;28;20823;-71
2022/10/04 07:22:00;;;;;;;5.03;2.03;;;13.10;99.90;;;;;;5016384;28;20790;-70
2022/10/04 07:24:42;;;;;;;7.50;2.73;;;13.20;90.30;;;;;;5023032;28;20512;-70
2022/10/04 07:27:16;;;;;;;3.87;2.20;;;13.20;90.30;;;;;;5026094;28;20459;-69
2022/10/04 07:29:45;;;;;;;6.57;2.40;;;13.30;99.90;;;;;;5015571;28;20400;-69
2022/10/04 07:32:20;;;;;;;11.70;3.23;;;13.40;34.90;;;;;;5017869;28;20450;-70
2022/10/04 07:34:55;;;;;;;6.67;3.80;;;13.50;54.70;;;;;;5021984;28;20459;-68
2022/10/04 07:37:26;;;;;;;9.50;2.33;;;13.50;20.00;;;;;;5020540;28;20451;-68
2022/10/04 07:40:02;;;;;;;5.00;3.23;;;13.40;48.20;;;;;;5015112;28;20421;-69
2022/10/04 07:42:35;;;;;;;7.10;2.43;;;13.50;89.90;;;;;;5007676;28;20498;-69
2022/10/04 07:45:12;;;;;;;5.80;3.03;;;13.50;98.50;;;;;;5015562;28;20804;-70
2022/10/04 07:47:41;;;;;;;11.70;3.90;;;13.50;99.90;;;;;;5016415;28;20462;-71
2022/10/04 07:50:35;;;;;;;3.60;3.10;;;13.40;99.90;;;;;;5027301;28;20919;-70
2022/10/04 07:53:08;;;;;;;14.37;3.70;;;13.40;99.90;;;;;;5020472;28;20466;-69
2022/10/04 07:55:50;;;;;;;8.23;4.53;;;13.40;99.90;;;;;;5017061;28;20403;-69
2022/10/04 07:58:44;;;;;;;13.00;4.77;;;13.50;99.90;;;;;;5010953;28;20426;-70
2022/10/04 08:01:25;;;;;;;5.33;3.03;;;13.40;99.90;;;;;;5017985;28;20399;-72
2022/10/04 08:04:11;;;;;;;6.33;3.13;;;13.40;99.90;;;;;;5014368;28;20791;-69
2022/10/04 08:06:55;;;;;;;4.93;2.83;;;13.40;43.80;;;;;;5011521;28;20783;-69
2022/10/04 08:09:40;;;;;;;11.60;3.67;;;13.20;13.70;;;;;;5014533;28;20498;-70
2022/10/04 08:12:20;;;;;;;9.20;3.87;;;13.20;70.50;;;;;;5019062;28;20453;-69
2022/10/04 08:15:09;;;;;;;6.60;3.43;;;13.20;99.90;;;;;;5016224;28;20962;-70
2022/10/04 08:17:51;;;;;;;5.00;2.70;;;13.20;72.20;;;;;;5017656;28;20432;-70
2022/10/04 08:20:35;;;;;;;6.80;2.80;;;13.30;51.60;;;;;;5020778;28;20449;-69
2022/10/04 08:23:25;;;;;;;15.93;4.40;;;13.60;45.00;;;;;;5018518;28;20913;-70
2022/10/04 08:26:07;;;;;;;7.10;3.27;;;14.20;1.00;;;;;;5007152;28;20399;-71
2022/10/04 08:31:55;;;;;;;10.90;5.33;;;14.80;99.90;;;;;;5028319;22;20400;-71
2022/10/04 08:34:43;;;;;;;7.60;4.10;;;14.60;99.90;;;;;;5027442;28;20510;-70
2022/10/04 08:37:24;;;;;;;9.73;4.60;;;14.70;99.90;;;;;;5024965;28;20407;-71
2022/10/04 08:40:08;;;;;;;9.03;4.23;;;14.60;99.90;;;;;;5030428;28;20778;-70
2022/10/04 08:43:08;;;;;;;15.77;5.90;;;14.50;99.90;;;;;;5042961;28;20486;-71
2022/10/04 08:46:15;;;;;;;9.83;4.07;;;14.60;99.90;;;;;;5016338;28;20464;-70
2022/10/04 08:49:20;;;;;;;7.93;4.40;;;15.00;99.90;;;;;;5018186;28;20406;-70
2022/10/04 08:52:20;;;;;;;12.23;5.80;;;15.20;99.90;;;;;;5028299;28;20415;-70
2022/10/04 08:55:36;;;;;;;8.60;4.70;;;15.40;99.90;;;;;;5033722;28;20458;-70
2022/10/04 08:58:16;;;;;;;9.23;5.53;;;15.50;99.90;;;;;;5021966;28;20440;-71
2022/10/04 09:01:19;;;;;;;8.90;4.07;;;15.70;99.90;;;;;;5030227;28;20437;-71
2022/10/04 09:04:26;;;;;;;7.77;4.13;;;15.80;99.90;;;;;;5025995;28;20395;-70
2022/10/04 09:07:14;;;;;;;6.30;3.83;;;15.70;99.90;;;;;;5002304;28;20506;-70
2022/10/04 09:10:10;;;;;;;6.80;4.50;;;15.80;99.90;;;;;;5033319;28;20850;-71
2022/10/04 09:12:50;;;;;;;8.40;4.83;;;15.90;99.90;;;;;;5018674;28;20444;-70
2022/10/04 09:15:37;;;;;;;5.80;3.73;;;16.30;99.90;;;;;;5028740;28;20886;-70
2022/10/04 09:18:21;;;;;;;11.27;4.80;;;16.00;99.90;;;;;;5017311;28;20407;-70
2022/10/04 09:21:00;;;;;;;10.57;5.00;;;16.10;99.90;;;;;;5016887;28;20462;-71
2022/10/04 09:24:05;;;;;;;11.23;4.27;;;16.40;99.90;;;;;;5028788;28;20836;-71
2022/10/04 09:30:59;;;;;;;8.63;3.73;;;16.50;99.90;;;;;;5026780;28;20458;-70
2022/10/04 09:33:53;;;;;;;5.83;3.30;;;16.40;99.90;;;;;;5024433;28;20471;-71
2022/10/04 09:36:54;;;;;;;5.63;4.30;;;16.40;99.90;;;;;;5018298;28;20514;-72
2022/10/04 09:39:59;;;;;;;4.90;3.07;;;16.60;99.90;;;;;;5010420;28;20448;-72
2022/10/04 09:42:54;;;;;;;10.87;3.50;;;16.40;99.90;;;;;;5023361;28;20775;-72
2022/10/04 09:45:43;;;;;;;5.60;2.40;;;16.10;99.90;;;;;;5034526;28;20445;-71
2022/10/04 09:48:30;;;;;;;7.17;2.57;;;16.20;99.90;;;;;;5021230;28;20519;-71
2022/10/04 09:51:29;;;;;;;2.53;2.17;;;16.30;99.90;;;;;;5021370;28;20407;-71
2022/10/04 09:54:21;;;;;;;3.07;2.20;;;16.40;99.90;;;;;;5028855;28;20446;-73
2022/10/04 09:57:18;;;;;;;4.00;2.27;;;16.30;99.90;;;;;;5018684;28;20443;-73
2022/10/04 10:00:05;;;;;;;10.70;2.67;;;16.60;99.90;;;;;;5024744;28;20415;-71
2022/10/04 10:03:11;;;;;;;4.20;2.47;;;16.80;99.90;;;;;;5025466;28;20512;-72
2022/10/04 10:06:21;;;;;;;5.20;2.80;;;16.90;99.90;;;;;;5015727;28;20494;-71
2022/10/04 10:09:07;;;;;;;5.53;2.47;;;17.40;99.90;;;;;;5010972;28;20422;-72
2022/10/04 10:15:04;;;;;;;3.27;1.80;;;17.60;99.90;;;;;;5021907;28;20675;-72
2022/10/04 10:17:40;;;;;;;3.37;1.83;;;17.50;99.90;;;;;;5026055;28;20462;-72
2022/10/04 10:20:48;;;;;;;4.40;2.00;;;17.60;99.90;;;;;;5029918;28;20411;-71
2022/10/04 10:23:37;;;;;;;2.97;1.53;;;17.10;99.90;;;;;;5032586;28;20432;-72
2022/10/04 10:26:34;;;;;;;4.83;2.90;;;17.10;99.90;;;;;;5030544;28;20477;-71
2022/10/04 10:29:51;;;;;;;5.30;1.80;;;17.20;99.90;;;;;;5029716;28;20403;-72
2022/10/04 10:32:39;;;;;;;5.70;2.00;;;17.00;99.90;;;;;;5014750;28;20430;-72
2022/10/04 10:35:26;;;;;;;7.47;2.30;;;17.00;99.90;;;;;;5037189;28;20473;-72
2022/10/04 10:38:23;;;;;;;5.70;1.70;;;17.00;99.90;;;;;;5042736;28;20441;-71
2022/10/04 10:41:24;;;;;;;3.40;1.63;;;17.00;99.90;;;;;;5043288;28;20434;-73
2022/10/04 10:44:11;;;;;;;7.03;2.07;;;16.90;99.90;;;;;;5040641;28;20453;-72
2022/10/04 10:46:52;;;;;;;5.63;2.30;;;16.90;99.90;;;;;;5033878;28;20540;-69
2022/10/04 10:49:44;;;;;;;4.67;2.00;;;17.00;99.90;;;;;;5034778;28;20413;-71
2022/10/04 10:52:49;;;;;;;2.70;2.20;;;17.10;99.90;;;;;;5034447;28;20435;-71
2022/10/04 10:55:31;;;;;;;6.50;3.03;;;17.60;99.90;;;;;;5025158;28;20450;-72
2022/10/04 10:58:32;;;;;;;10.60;4.70;;;17.90;99.30;;;;;;5030958;28;20805;-71
2022/10/04 11:01:24;;;;;;;8.70;3.40;;;18.30;94.30;;;;;;5015873;28;20790;-70
2022/10/04 11:04:22;;;;;;;6.27;2.47;;;17.90;91.60;;;;;;5033182;28;20973;-71
2022/10/04 11:07:19;;;;;;;5.47;3.00;;;17.90;92.80;;;;;;5034163;28;20930;-70
2022/10/04 11:10:22;;;;;;;7.03;2.10;;;17.70;95.80;;;;;;5025021;28;20482;-72
2022/10/04 11:13:20;;;;;;;7.20;2.80;;;17.80;96.60;;;;;;5030205;28;20435;-70
2022/10/04 11:16:24;;;;;;;5.67;2.73;;;18.30;96.10;;;;;;5017943;28;20446;-70
2022/10/04 11:19:21;;;;;;;5.20;3.20;;;18.50;90.70;;;;;;5024242;28;20458;-71
2022/10/04 11:22:18;;;;;;;4.77;2.20;;;18.20;87.00;;;;;;5011781;28;20530;-71
2022/10/04 11:25:16;;;;;;;7.20;2.40;;;18.10;90.10;;;;;;5033682;28;20428;-71
2022/10/04 11:27:52;;;;;;;3.43;2.03;;;18.00;87.70;;;;;;5011078;28;20424;-71
2022/10/04 11:30:28;;;;;;;10.20;3.00;;;18.10;90.00;;;;;;5023600;28;21117;-73
2022/10/04 11:33:31;;;;;;;5.83;2.40;;;18.10;85.70;;;;;;5024378;28;20452;-72
2022/10/04 11:36:27;;;;;;;8.83;2.40;;;18.10;89.90;;;;;;5029346;28;20492;-71
2022/10/04 11:39:19;;;;;;;6.80;3.10;;;18.20;81.30;;;;;;5025729;28;20494;-70
2022/10/04 11:41:54;;;;;;;8.03;3.33;;;17.80;78.20;;;;;;5022204;28;20804;-71
2022/10/04 11:44:58;;;;;;;6.27;2.83;;;17.70;83.80;;;;;;5030390;28;20519;-71
2022/10/04 11:47:41;;;;;;;7.10;3.60;;;17.60;92.80;;;;;;5020521;28;20404;-72
2022/10/04 11:50:34;;;;;;;6.93;3.27;;;17.50;95.10;;;;;;5031931;28;20446;-74
2022/10/04 11:53:44;;;;;;;12.83;2.87;;;17.50;94.60;;;;;;5021017;28;20433;-71
2022/10/04 11:56:40;;;;;;;6.47;3.23;;;17.50;91.50;;;;;;5022694;28;20419;-71
2022/10/04 11:59:24;;;;;;;4.77;2.03;;;17.80;92.70;;;;;;5028215;28;20964;-71
2022/10/04 12:02:34;;;;;;;4.90;1.67;;;17.90;90.10;;;;;;5028253;28;20990;-71
2022/10/04 12:05:32;;;;;;;5.83;1.77;;;17.80;81.90;;;;;;4998091;28;20547;-71
2022/10/04 12:08:15;;;;;;;5.07;2.37;;;17.90;73.10;;;;;;4995585;28;20834;-69
2022/10/04 12:11:01;;;;;;;4.00;2.77;;;17.80;74.00;;;;;;5029349;28;20782;-72
2022/10/04 12:13:58;;;;;;;6.20;2.10;;;17.70;72.20;;;;;;5029292;28;20921;-72
2022/10/04 12:16:51;;;;;;;6.10;2.27;;;17.60;77.40;;;;;;5027323;28;20442;-72
2022/10/04 12:19:51;;;;;;;5.67;2.30;;;17.80;82.40;;;;;;5035080;28;20415;-72
2022/10/04 12:22:59;;;;;;;4.30;2.27;;;18.00;74.40;;;;;;5023911;28;20435;-70
2022/10/04 12:25:49;;;;;;;7.20;2.30;;;18.20;73.80;;;;;;5027594;28;20456;-74
2022/10/04 12:28:41;;;;;;;7.20;2.20;;;18.30;65.90;;;;;;5022228;28;20448;-73
2022/10/04 12:31:22;;;;;;;3.70;1.47;;;18.30;70.30;;;;;;5000314;28;21049;-70
2022/10/04 12:33:59;;;;;;;8.40;2.00;;;18.40;62.80;;;;;;5024401;28;20483;-71
2022/10/04 12:36:43;;;;;;;6.53;2.07;;;18.30;59.70;;;;;;5029826;28;20538;-69
2022/10/04 12:39:28;;;;;;;14.73;2.30;;;18.30;60.00;;;;;;5037276;28;20425;-70
2022/10/04 12:42:11;;;;;;;4.93;1.90;;;18.40;53.60;;;;;;5028600;28;20885;-70
2022/10/04 12:44:53;;;;;;;7.27;2.40;;;18.30;54.60;;;;;;5035025;28;20446;-69
2022/10/04 12:47:47;;;;;;;3.50;2.10;;;18.30;54.40;;;;;;5024344;28;20845;-70
2022/10/04 12:50:26;;;;;;;6.70;2.90;;;18.50;55.00;;;;;;5028307;28;20407;-71
2022/10/04 12:53:06;;;;;;;6.80;1.73;;;18.30;49.10;;;;;;5044119;28;20449;-70
2022/10/04 12:55:52;;;;;;;4.53;1.97;;;18.00;46.70;;;;;;5026558;28;20499;-73
2022/10/04 12:58:29;;;;;;;3.50;1.57;;;18.00;51.20;;;;;;5034356;28;20886;-71
2022/10/04 13:01:07;;;;;;;3.37;1.70;;;17.80;53.90;;;;;;5026760;28;20515;-71
2022/10/04 13:03:44;;;;;;;5.20;2.00;;;17.70;51.60;;;;;;5024481;28;20429;-70
2022/10/04 13:06:23;;;;;;;4.20;2.10;;;17.80;52.30;;;;;;5035337;28;20458;-71
2022/10/04 13:09:08;;;;;;;7.47;1.90;;;17.90;49.90;;;;;;5025741;28;20787;-70
2022/10/04 13:12:00;;;;;;;4.30;2.07;;;18.10;51.40;;;;;;5026492;28;20429;-72
2022/10/04 13:14:50;;;;;;;6.43;2.20;;;18.20;49.90;;;;;;5023729;28;20466;-71
2022/10/04 13:17:28;;;;;;;8.63;2.20;;;18.30;45.60;;;;;;5019980;28;20440;-71
2022/10/04 13:20:25;;;;;;;3.50;1.90;;;18.40;45.40;;;;;;5025788;28;20463;-72
2022/10/04 13:22:59;;;;;;;10.97;2.63;;;18.30;44.70;;;;;;5022430;28;20439;-73
2022/10/04 13:25:50;;;;;;;5.50;1.90;;;18.30;44.40;;;;;;5019693;28;20414;-71
2022/10/04 13:28:30;;;;;;;4.20;2.23;;;18.30;41.50;;;;;;5021673;28;20944;-71
2022/10/04 13:31:04;;;;;;;8.33;2.50;;;18.50;43.20;;;;;;5041800;28;20966;-71
2022/10/04 13:33:48;;;;;;;4.47;2.53;;;18.50;40.50;;;;;;5016106;28;20448;-72
2022/10/04 13:36:23;;;;;;;5.70;2.27;;;18.60;40.20;;;;;;5023499;28;20536;-72
2022/10/04 13:39:23;;;;;;;6.70;2.60;;;18.60;36.70;;;;;;5029313;28;20793;-70
2022/10/04 13:42:17;;;;;;;4.07;2.13;;;18.90;34.60;;;;;;5012002;28;20421;-70
2022/10/04 13:44:58;;;;;;;6.50;2.00;;;18.80;32.70;;;;;;5025442;28;20427;-72
2022/10/04 13:47:47;;;;;;;4.87;2.03;;;18.90;32.80;;;;;;5025111;28;20428;-74
2022/10/04 13:50:32;;;;;;;3.83;1.30;;;18.90;30.30;;;;;;5031410;28;20418;-71
2022/10/04 13:59:00;;;;;;;7.50;2.80;;;18.70;28.40;;;;;;5025250;28;20440;-72
2022/10/04 14:02:02;;;;;;;9.20;3.93;;;18.70;28.10;;;;;;5021488;28;20407;-69
2022/10/04 14:04:53;;;;;;;4.87;1.97;;;18.60;27.30;;;;;;5016392;28;20455;-70
2022/10/04 14:07:50;;;;;;;5.10;2.07;;;18.60;25.40;;;;;;5022979;28;20588;-72
2022/10/04 14:10:43;;;;;;;8.03;2.00;;;18.50;24.70;;;;;;5029244;28;20398;-73
2022/10/04 14:13:36;;;;;;;3.23;1.50;;;18.50;23.40;;;;;;5022672;28;20409;-72
2022/10/04 14:16:35;;;;;;;2.70;1.23;;;18.70;22.40;;;;;;5024189;28;20447;-73
2022/10/04 14:19:37;;;;;;;5.47;1.53;;;18.80;21.40;;;;;;5021817;28;20471;-73
2022/10/04 14:22:52;;;;;;;3.37;1.50;;;18.90;19.80;;;;;;5024286;28;20435;-71
2022/10/04 14:25:50;;;;;;;2.70;1.00;;;18.90;18.20;;;;;;4983022;28;20723;-72